sensor_id;sensor_type;location;lat;lon;timestamp;P1;durP1;ratioP1;P2;durP2;ratioP2
65757;SDS011;52495;52.208;5.158;2022-09-28T00:00:16;7.90;;;4.82;;
65757;SDS011;52495;52.208;5.158;2022-09-28T00:02:43;7.03;;;4.60;;
65757;SDS011;52495;52.208;5.158;2022-09-28T00:05:10;6.57;;;4.93;;
65757;SDS011;52495;52.208;5.158;2022-09-28T00:07:37;8.70;;;5.15;;
65757;SDS011;52495;52.208;5.158;2022-09-28T00:10:04;7.95;;;4.75;;
65757;SDS011;52495;52.208;5.158;2022-09-28T00:12:32;10.48;;;5.22;;
65757;SDS011;52495;52.208;5.158;2022-09-28T00:15:00;7.72;;;5.30;;
65757;SDS011;52495;52.208;5.158;2022-09-28T00:17:28;8.63;;;5.10;;
65757;SDS011;52495;52.208;5.158;2022-09-28T00:19:55;5.38;;;4.10;;
65757;SDS011;52495;52.208;5.158;2022-09-28T00:22:32;7.60;;;4.60;;
65757;SDS011;52495;52.208;5.158;2022-09-28T00:25:08;7.70;;;4.97;;
65757;SDS011;52495;52.208;5.158;2022-09-28T00:27:41;7.30;;;4.78;;
65757;SDS011;52495;52.208;5.158;2022-09-28T00:30:10;6.85;;;5.00;;
65757;SDS011;52495;52.208;5.158;2022-09-28T00:32:42;9.82;;;5.03;;
65757;SDS011;52495;52.208;5.158;2022-09-28T00:35:12;7.95;;;4.70;;
65757;SDS011;52495;52.208;5.158;2022-09-28T00:37:40;6.63;;;4.43;;
65757;SDS011;52495;52.208;5.158;2022-09-28T00:40:13;8.93;;;4.00;;
65757;SDS011;52495;52.208;5.158;2022-09-28T00:42:45;8.85;;;4.35;;
65757;SDS011;52495;52.208;5.158;2022-09-28T00:45:18;6.50;;;3.90;;
65757;SDS011;52495;52.208;5.158;2022-09-28T00:47:53;5.95;;;4.03;;
65757;SDS011;52495;52.208;5.158;2022-09-28T00:50:26;6.68;;;3.55;;
65757;SDS011;52495;52.208;5.158;2022-09-28T00:52:58;7.65;;;3.58;;
65757;SDS011;52495;52.208;5.158;2022-09-28T00:55:31;6.57;;;3.55;;
65757;SDS011;52495;52.208;5.158;2022-09-28T00:58:06;4.93;;;3.03;;
65757;SDS011;52495;52.208;5.158;2022-09-28T01:00:47;5.05;;;3.30;;
65757;SDS011;52495;52.208;5.158;2022-09-28T01:03:19;6.32;;;3.35;;
65757;SDS011;52495;52.208;5.158;2022-09-28T01:06:02;5.28;;;2.90;;
65757;SDS011;52495;52.208;5.158;2022-09-28T01:08:38;4.68;;;2.97;;
65757;SDS011;52495;52.208;5.158;2022-09-28T01:11:11;6.88;;;2.83;;
65757;SDS011;52495;52.208;5.158;2022-09-28T01:13:39;4.47;;;2.30;;
65757;SDS011;52495;52.208;5.158;2022-09-28T01:16:18;5.13;;;2.40;;
65757;SDS011;52495;52.208;5.158;2022-09-28T01:19:16;5.85;;;2.50;;
65757;SDS011;52495;52.208;5.158;2022-09-28T01:22:10;4.40;;;2.50;;
65757;SDS011;52495;52.208;5.158;2022-09-28T01:24:57;5.95;;;2.17;;
65757;SDS011;52495;52.208;5.158;2022-09-28T01:27:39;5.50;;;2.00;;
65757;SDS011;52495;52.208;5.158;2022-09-28T01:30:13;4.32;;;1.63;;
65757;SDS011;52495;52.208;5.158;2022-09-28T01:32:45;6.43;;;1.90;;
65757;SDS011;52495;52.208;5.158;2022-09-28T01:35:30;5.32;;;2.00;;
65757;SDS011;52495;52.208;5.158;2022-09-28T01:38:04;4.70;;;1.50;;
65757;SDS011;52495;52.208;5.158;2022-09-28T01:40:35;4.13;;;1.77;;
65757;SDS011;52495;52.208;5.158;2022-09-28T01:43:05;1.95;;;1.50;;
65757;SDS011;52495;52.208;5.158;2022-09-28T01:48:11;7.65;;;2.03;;
65757;SDS011;52495;52.208;5.158;2022-09-28T01:50:43;2.55;;;1.58;;
65757;SDS011;52495;52.208;5.158;2022-09-28T01:53:16;3.33;;;1.73;;
65757;SDS011;52495;52.208;5.158;2022-09-28T01:55:52;3.65;;;1.27;;
65757;SDS011;52495;52.208;5.158;2022-09-28T01:58:41;2.08;;;1.45;;
65757;SDS011;52495;52.208;5.158;2022-09-28T02:01:15;3.33;;;1.40;;
65757;SDS011;52495;52.208;5.158;2022-09-28T02:03:49;3.35;;;1.35;;
65757;SDS011;52495;52.208;5.158;2022-09-28T02:06:23;2.47;;;1.40;;
65757;SDS011;52495;52.208;5.158;2022-09-28T02:08:57;3.63;;;1.65;;
65757;SDS011;52495;52.208;5.158;2022-09-28T02:11:39;3.15;;;1.30;;
65757;SDS011;52495;52.208;5.158;2022-09-28T02:14:23;5.55;;;1.60;;
65757;SDS011;52495;52.208;5.158;2022-09-28T02:16:57;3.17;;;1.40;;
65757;SDS011;52495;52.208;5.158;2022-09-28T02:19:29;1.77;;;1.23;;
65757;SDS011;52495;52.208;5.158;2022-09-28T02:22:14;2.83;;;1.17;;
65757;SDS011;52495;52.208;5.158;2022-09-28T02:25:01;1.85;;;1.10;;
65757;SDS011;52495;52.208;5.158;2022-09-28T02:27:47;3.05;;;1.30;;
65757;SDS011;52495;52.208;5.158;2022-09-28T02:30:22;2.20;;;1.20;;
65757;SDS011;52495;52.208;5.158;2022-09-28T02:33:15;0.90;;;0.80;;
65757;SDS011;52495;52.208;5.158;2022-09-28T02:38:34;2.67;;;0.82;;
65757;SDS011;52495;52.208;5.158;2022-09-28T02:41:07;1.00;;;0.70;;
65757;SDS011;52495;52.208;5.158;2022-09-28T02:43:44;1.45;;;0.68;;
65757;SDS011;52495;52.208;5.158;2022-09-28T02:46:25;1.48;;;0.70;;
65757;SDS011;52495;52.208;5.158;2022-09-28T02:49:11;1.65;;;0.80;;
65757;SDS011;52495;52.208;5.158;2022-09-28T02:52:00;2.50;;;0.90;;
65757;SDS011;52495;52.208;5.158;2022-09-28T02:54:49;1.67;;;0.70;;
65757;SDS011;52495;52.208;5.158;2022-09-28T02:57:35;2.03;;;0.73;;
65757;SDS011;52495;52.208;5.158;2022-09-28T03:00:19;1.73;;;0.75;;
65757;SDS011;52495;52.208;5.158;2022-09-28T03:03:03;2.38;;;0.80;;
65757;SDS011;52495;52.208;5.158;2022-09-28T03:05:44;1.10;;;0.70;;
65757;SDS011;52495;52.208;5.158;2022-09-28T03:08:20;2.03;;;0.70;;
65757;SDS011;52495;52.208;5.158;2022-09-28T03:10:57;3.35;;;0.98;;
65757;SDS011;52495;52.208;5.158;2022-09-28T03:13:37;2.72;;;0.60;;
65757;SDS011;52495;52.208;5.158;2022-09-28T03:16:13;1.15;;;0.63;;
65757;SDS011;52495;52.208;5.158;2022-09-28T03:18:46;3.08;;;0.60;;
65757;SDS011;52495;52.208;5.158;2022-09-28T03:21:16;2.35;;;0.77;;
65757;SDS011;52495;52.208;5.158;2022-09-28T03:23:49;3.00;;;0.60;;
65757;SDS011;52495;52.208;5.158;2022-09-28T03:26:19;3.17;;;0.80;;
65757;SDS011;52495;52.208;5.158;2022-09-28T03:28:49;2.05;;;0.80;;
65757;SDS011;52495;52.208;5.158;2022-09-28T03:31:22;1.17;;;0.63;;
65757;SDS011;52495;52.208;5.158;2022-09-28T03:33:51;2.65;;;0.68;;
65757;SDS011;52495;52.208;5.158;2022-09-28T03:36:20;1.02;;;0.60;;
65757;SDS011;52495;52.208;5.158;2022-09-28T03:38:54;0.57;;;0.50;;
65757;SDS011;52495;52.208;5.158;2022-09-28T03:41:25;1.67;;;0.65;;
65757;SDS011;52495;52.208;5.158;2022-09-28T03:43:52;0.75;;;0.47;;
65757;SDS011;52495;52.208;5.158;2022-09-28T03:46:24;0.95;;;0.55;;
65757;SDS011;52495;52.208;5.158;2022-09-28T03:48:56;1.38;;;0.70;;
65757;SDS011;52495;52.208;5.158;2022-09-28T03:51:24;2.10;;;0.65;;
65757;SDS011;52495;52.208;5.158;2022-09-28T03:53:59;2.38;;;1.20;;
65757;SDS011;52495;52.208;5.158;2022-09-28T03:56:32;10.63;;;4.80;;
65757;SDS011;52495;52.208;5.158;2022-09-28T03:59:01;9.77;;;3.58;;
65757;SDS011;52495;52.208;5.158;2022-09-28T04:01:30;9.50;;;2.97;;
65757;SDS011;52495;52.208;5.158;2022-09-28T04:04:02;5.20;;;2.20;;
65757;SDS011;52495;52.208;5.158;2022-09-28T04:06:33;5.22;;;2.53;;
65757;SDS011;52495;52.208;5.158;2022-09-28T04:09:05;3.17;;;1.38;;
65757;SDS011;52495;52.208;5.158;2022-09-28T04:11:37;3.72;;;2.00;;
65757;SDS011;52495;52.208;5.158;2022-09-28T04:16:34;3.10;;;1.00;;
65757;SDS011;52495;52.208;5.158;2022-09-28T04:19:15;1.35;;;0.68;;
65757;SDS011;52495;52.208;5.158;2022-09-28T04:21:46;4.55;;;3.05;;
65757;SDS011;52495;52.208;5.158;2022-09-28T04:24:29;2.70;;;2.10;;
65757;SDS011;52495;52.208;5.158;2022-09-28T04:26:56;1.65;;;1.30;;
65757;SDS011;52495;52.208;5.158;2022-09-28T04:29:40;3.45;;;0.98;;
65757;SDS011;52495;52.208;5.158;2022-09-28T04:32:09;8.23;;;0.88;;
65757;SDS011;52495;52.208;5.158;2022-09-28T04:34:40;1.17;;;0.80;;
65757;SDS011;52495;52.208;5.158;2022-09-28T04:37:14;1.52;;;0.68;;
65757;SDS011;52495;52.208;5.158;2022-09-28T04:39:45;1.70;;;0.75;;
65757;SDS011;52495;52.208;5.158;2022-09-28T04:42:14;2.30;;;0.60;;
65757;SDS011;52495;52.208;5.158;2022-09-28T04:44:49;2.33;;;0.80;;
65757;SDS011;52495;52.208;5.158;2022-09-28T04:47:17;1.02;;;0.77;;
65757;SDS011;52495;52.208;5.158;2022-09-28T04:50:07;1.35;;;0.60;;
65757;SDS011;52495;52.208;5.158;2022-09-28T04:52:55;1.23;;;0.40;;
65757;SDS011;52495;52.208;5.158;2022-09-28T04:55:25;1.38;;;0.80;;
65757;SDS011;52495;52.208;5.158;2022-09-28T04:58:00;1.52;;;0.60;;
65757;SDS011;52495;52.208;5.158;2022-09-28T05:00:38;1.55;;;0.80;;
65757;SDS011;52495;52.208;5.158;2022-09-28T05:03:19;1.38;;;0.50;;
65757;SDS011;52495;52.208;5.158;2022-09-28T05:06:18;2.03;;;0.50;;
65757;SDS011;52495;52.208;5.158;2022-09-28T05:09:04;1.13;;;0.90;;
65757;SDS011;52495;52.208;5.158;2022-09-28T05:11:33;1.95;;;0.70;;
65757;SDS011;52495;52.208;5.158;2022-09-28T05:14:09;0.90;;;0.50;;
65757;SDS011;52495;52.208;5.158;2022-09-28T05:16:38;0.88;;;0.60;;
65757;SDS011;52495;52.208;5.158;2022-09-28T05:19:23;0.65;;;0.55;;
65757;SDS011;52495;52.208;5.158;2022-09-28T05:21:57;2.17;;;0.70;;
65757;SDS011;52495;52.208;5.158;2022-09-28T05:24:43;0.98;;;0.60;;
65757;SDS011;52495;52.208;5.158;2022-09-28T05:27:14;1.83;;;0.50;;
65757;SDS011;52495;52.208;5.158;2022-09-28T05:29:53;6.13;;;0.80;;
65757;SDS011;52495;52.208;5.158;2022-09-28T05:32:34;1.15;;;0.60;;
65757;SDS011;52495;52.208;5.158;2022-09-28T05:35:29;0.70;;;0.50;;
65757;SDS011;52495;52.208;5.158;2022-09-28T05:38:06;3.20;;;0.77;;
65757;SDS011;52495;52.208;5.158;2022-09-28T05:40:40;1.40;;;0.63;;
65757;SDS011;52495;52.208;5.158;2022-09-28T05:43:12;1.17;;;0.68;;
65757;SDS011;52495;52.208;5.158;2022-09-28T05:45:48;6.90;;;0.93;;
65757;SDS011;52495;52.208;5.158;2022-09-28T05:48:22;2.00;;;0.90;;
65757;SDS011;52495;52.208;5.158;2022-09-28T05:50:56;1.35;;;0.60;;
65757;SDS011;52495;52.208;5.158;2022-09-28T05:53:28;2.30;;;0.73;;
65757;SDS011;52495;52.208;5.158;2022-09-28T05:55:56;3.55;;;0.75;;
65757;SDS011;52495;52.208;5.158;2022-09-28T05:58:31;2.85;;;0.82;;
65757;SDS011;52495;52.208;5.158;2022-09-28T06:01:01;2.17;;;0.88;;
65757;SDS011;52495;52.208;5.158;2022-09-28T06:03:29;2.17;;;0.90;;
65757;SDS011;52495;52.208;5.158;2022-09-28T06:05:58;1.67;;;0.73;;
65757;SDS011;52495;52.208;5.158;2022-09-28T06:08:27;1.95;;;0.85;;
65757;SDS011;52495;52.208;5.158;2022-09-28T06:11:02;2.17;;;0.90;;
65757;SDS011;52495;52.208;5.158;2022-09-28T06:13:28;2.20;;;1.00;;
65757;SDS011;52495;52.208;5.158;2022-09-28T06:15:56;2.75;;;0.80;;
65757;SDS011;52495;52.208;5.158;2022-09-28T06:18:24;3.50;;;1.42;;
65757;SDS011;52495;52.208;5.158;2022-09-28T06:21:00;5.35;;;1.60;;
65757;SDS011;52495;52.208;5.158;2022-09-28T06:23:34;2.67;;;1.23;;
65757;SDS011;52495;52.208;5.158;2022-09-28T06:26:04;6.03;;;2.53;;
65757;SDS011;52495;52.208;5.158;2022-09-28T06:28:32;6.80;;;2.63;;
65757;SDS011;52495;52.208;5.158;2022-09-28T06:30:58;8.32;;;2.25;;
65757;SDS011;52495;52.208;5.158;2022-09-28T06:33:26;3.85;;;1.90;;
65757;SDS011;52495;52.208;5.158;2022-09-28T06:35:52;4.53;;;1.70;;
65757;SDS011;52495;52.208;5.158;2022-09-28T06:38:19;3.22;;;1.45;;
65757;SDS011;52495;52.208;5.158;2022-09-28T06:40:48;3.92;;;1.67;;
65757;SDS011;52495;52.208;5.158;2022-09-28T06:43:15;2.92;;;1.33;;
65757;SDS011;52495;52.208;5.158;2022-09-28T06:46:01;2.58;;;1.25;;
65757;SDS011;52495;52.208;5.158;2022-09-28T06:48:43;3.08;;;1.10;;
65757;SDS011;52495;52.208;5.158;2022-09-28T06:51:15;2.13;;;1.38;;
65757;SDS011;52495;52.208;5.158;2022-09-28T06:53:56;1.35;;;1.00;;
65757;SDS011;52495;52.208;5.158;2022-09-28T06:56:39;3.28;;;1.70;;
65757;SDS011;52495;52.208;5.158;2022-09-28T06:59:06;2.17;;;1.20;;
65757;SDS011;52495;52.208;5.158;2022-09-28T07:01:34;2.45;;;1.08;;
65757;SDS011;52495;52.208;5.158;2022-09-28T07:04:21;3.42;;;1.20;;
65757;SDS011;52495;52.208;5.158;2022-09-28T07:07:06;4.18;;;1.67;;
65757;SDS011;52495;52.208;5.158;2022-09-28T07:10:07;2.00;;;1.25;;
65757;SDS011;52495;52.208;5.158;2022-09-28T07:12:55;2.75;;;1.23;;
65757;SDS011;52495;52.208;5.158;2022-09-28T07:15:38;2.33;;;1.23;;
65757;SDS011;52495;52.208;5.158;2022-09-28T07:18:10;2.60;;;1.20;;
65757;SDS011;52495;52.208;5.158;2022-09-28T07:20:39;4.93;;;1.40;;
65757;SDS011;52495;52.208;5.158;2022-09-28T07:23:06;1.73;;;1.02;;
65757;SDS011;52495;52.208;5.158;2022-09-28T07:25:53;2.95;;;1.02;;
65757;SDS011;52495;52.208;5.158;2022-09-28T07:28:31;2.67;;;1.38;;
65757;SDS011;52495;52.208;5.158;2022-09-28T07:31:21;2.75;;;1.00;;
65757;SDS011;52495;52.208;5.158;2022-09-28T07:34:03;2.67;;;1.23;;
65757;SDS011;52495;52.208;5.158;2022-09-28T07:36:45;2.92;;;1.20;;
65757;SDS011;52495;52.208;5.158;2022-09-28T07:39:11;1.52;;;1.15;;
65757;SDS011;52495;52.208;5.158;2022-09-28T07:41:38;1.75;;;0.90;;
65757;SDS011;52495;52.208;5.158;2022-09-28T07:44:09;3.20;;;1.10;;
65757;SDS011;52495;52.208;5.158;2022-09-28T07:46:38;1.33;;;0.90;;
65757;SDS011;52495;52.208;5.158;2022-09-28T07:49:19;6.22;;;1.17;;
65757;SDS011;52495;52.208;5.158;2022-09-28T07:51:53;1.77;;;0.68;;
65757;SDS011;52495;52.208;5.158;2022-09-28T07:54:26;4.20;;;1.17;;
65757;SDS011;52495;52.208;5.158;2022-09-28T07:57:06;2.45;;;0.93;;
65757;SDS011;52495;52.208;5.158;2022-09-28T07:59:49;1.33;;;0.85;;
65757;SDS011;52495;52.208;5.158;2022-09-28T08:02:43;0.85;;;0.63;;
65757;SDS011;52495;52.208;5.158;2022-09-28T08:05:15;1.30;;;0.60;;
65757;SDS011;52495;52.208;5.158;2022-09-28T08:07:42;1.50;;;0.60;;
65757;SDS011;52495;52.208;5.158;2022-09-28T08:10:10;4.03;;;0.63;;
65757;SDS011;52495;52.208;5.158;2022-09-28T08:12:56;2.80;;;0.80;;
65757;SDS011;52495;52.208;5.158;2022-09-28T08:15:53;1.27;;;0.60;;
65757;SDS011;52495;52.208;5.158;2022-09-28T08:18:34;1.50;;;0.65;;
65757;SDS011;52495;52.208;5.158;2022-09-28T08:21:01;2.20;;;0.70;;
65757;SDS011;52495;52.208;5.158;2022-09-28T08:23:46;2.08;;;0.68;;
65757;SDS011;52495;52.208;5.158;2022-09-28T08:26:13;2.22;;;0.93;;
65757;SDS011;52495;52.208;5.158;2022-09-28T08:28:42;1.70;;;0.82;;
65757;SDS011;52495;52.208;5.158;2022-09-28T08:31:47;1.60;;;0.80;;
65757;SDS011;52495;52.208;5.158;2022-09-28T08:34:34;2.55;;;0.70;;
65757;SDS011;52495;52.208;5.158;2022-09-28T08:37:16;2.30;;;1.00;;
65757;SDS011;52495;52.208;5.158;2022-09-28T08:40:01;1.05;;;0.60;;
65757;SDS011;52495;52.208;5.158;2022-09-28T08:42:49;1.38;;;0.50;;
65757;SDS011;52495;52.208;5.158;2022-09-28T08:45:40;3.75;;;0.82;;
65757;SDS011;52495;52.208;5.158;2022-09-28T08:48:49;0.40;;;0.40;;
65757;SDS011;52495;52.208;5.158;2022-09-28T08:51:43;1.20;;;0.60;;
65757;SDS011;52495;52.208;5.158;2022-09-28T08:54:28;1.58;;;0.68;;
65757;SDS011;52495;52.208;5.158;2022-09-28T08:57:02;1.75;;;0.57;;
65757;SDS011;52495;52.208;5.158;2022-09-28T08:59:36;3.63;;;0.65;;
65757;SDS011;52495;52.208;5.158;2022-09-28T09:02:20;2.00;;;0.60;;
65757;SDS011;52495;52.208;5.158;2022-09-28T09:04:56;1.33;;;0.50;;
65757;SDS011;52495;52.208;5.158;2022-09-28T09:07:38;1.58;;;0.75;;
65757;SDS011;52495;52.208;5.158;2022-09-28T09:10:21;1.73;;;0.70;;
65757;SDS011;52495;52.208;5.158;2022-09-28T09:13:05;1.33;;;0.73;;
65757;SDS011;52495;52.208;5.158;2022-09-28T09:15:47;2.88;;;0.70;;
65757;SDS011;52495;52.208;5.158;2022-09-28T09:18:57;1.00;;;0.30;;
65757;SDS011;52495;52.208;5.158;2022-09-28T09:21:57;0.65;;;0.50;;
65757;SDS011;52495;52.208;5.158;2022-09-28T09:24:26;1.90;;;0.57;;
65757;SDS011;52495;52.208;5.158;2022-09-28T09:27:04;0.55;;;0.30;;
65757;SDS011;52495;52.208;5.158;2022-09-28T09:29:36;2.67;;;0.63;;
65757;SDS011;52495;52.208;5.158;2022-09-28T09:35:01;0.85;;;0.40;;
65757;SDS011;52495;52.208;5.158;2022-09-28T09:38:11;0.52;;;0.47;;
65757;SDS011;52495;52.208;5.158;2022-09-28T09:41:14;1.55;;;0.70;;
65757;SDS011;52495;52.208;5.158;2022-09-28T09:44:12;2.08;;;0.77;;
65757;SDS011;52495;52.208;5.158;2022-09-28T09:47:16;3.30;;;0.70;;
65757;SDS011;52495;52.208;5.158;2022-09-28T09:49:53;2.92;;;1.00;;
65757;SDS011;52495;52.208;5.158;2022-09-28T09:52:27;1.30;;;0.70;;
65757;SDS011;52495;52.208;5.158;2022-09-28T09:55:00;1.27;;;0.63;;
65757;SDS011;52495;52.208;5.158;2022-09-28T09:57:47;3.85;;;0.90;;
65757;SDS011;52495;52.208;5.158;2022-09-28T10:00:44;1.00;;;0.70;;
65757;SDS011;52495;52.208;5.158;2022-09-28T10:03:25;1.50;;;0.82;;
65757;SDS011;52495;52.208;5.158;2022-09-28T10:06:04;1.63;;;0.77;;
65757;SDS011;52495;52.208;5.158;2022-09-28T10:08:38;0.95;;;0.70;;
65757;SDS011;52495;52.208;5.158;2022-09-28T10:11:13;1.13;;;0.80;;
65757;SDS011;52495;52.208;5.158;2022-09-28T10:13:49;1.08;;;0.80;;
65757;SDS011;52495;52.208;5.158;2022-09-28T10:16:36;3.00;;;0.80;;
65757;SDS011;52495;52.208;5.158;2022-09-28T10:19:08;3.42;;;0.95;;
65757;SDS011;52495;52.208;5.158;2022-09-28T10:22:04;1.80;;;0.70;;
65757;SDS011;52495;52.208;5.158;2022-09-28T10:24:34;3.42;;;0.75;;
65757;SDS011;52495;52.208;5.158;2022-09-28T10:27:05;1.42;;;0.70;;
65757;SDS011;52495;52.208;5.158;2022-09-28T10:29:39;0.77;;;0.60;;
65757;SDS011;52495;52.208;5.158;2022-09-28T10:32:17;1.90;;;0.70;;
65757;SDS011;52495;52.208;5.158;2022-09-28T10:34:46;2.53;;;0.50;;
65757;SDS011;52495;52.208;5.158;2022-09-28T10:37:15;0.85;;;0.38;;
65757;SDS011;52495;52.208;5.158;2022-09-28T10:40:19;2.00;;;0.60;;
65757;SDS011;52495;52.208;5.158;2022-09-28T10:43:06;1.73;;;0.60;;
65757;SDS011;52495;52.208;5.158;2022-09-28T10:45:44;1.17;;;0.50;;
65757;SDS011;52495;52.208;5.158;2022-09-28T10:48:14;0.60;;;0.40;;
65757;SDS011;52495;52.208;5.158;2022-09-28T10:50:55;1.42;;;0.65;;
65757;SDS011;52495;52.208;5.158;2022-09-28T10:53:24;2.50;;;0.55;;
65757;SDS011;52495;52.208;5.158;2022-09-28T10:56:01;0.65;;;0.40;;
65757;SDS011;52495;52.208;5.158;2022-09-28T10:58:35;2.30;;;0.70;;
65757;SDS011;52495;52.208;5.158;2022-09-28T11:01:06;1.98;;;0.52;;
65757;SDS011;52495;52.208;5.158;2022-09-28T11:03:37;1.00;;;0.57;;
65757;SDS011;52495;52.208;5.158;2022-09-28T11:06:21;1.55;;;0.50;;
65757;SDS011;52495;52.208;5.158;2022-09-28T11:08:50;2.80;;;0.50;;
65757;SDS011;52495;52.208;5.158;2022-09-28T11:11:20;1.13;;;0.50;;
65757;SDS011;52495;52.208;5.158;2022-09-28T11:14:00;0.60;;;0.47;;
65757;SDS011;52495;52.208;5.158;2022-09-28T11:16:33;1.58;;;0.50;;
65757;SDS011;52495;52.208;5.158;2022-09-28T11:19:03;1.40;;;0.70;;
65757;SDS011;52495;52.208;5.158;2022-09-28T11:21:39;1.23;;;0.50;;
65757;SDS011;52495;52.208;5.158;2022-09-28T11:24:17;1.80;;;0.63;;
65757;SDS011;52495;52.208;5.158;2022-09-28T11:26:47;1.05;;;0.40;;
65757;SDS011;52495;52.208;5.158;2022-09-28T11:29:23;1.02;;;0.45;;
65757;SDS011;52495;52.208;5.158;2022-09-28T11:32:16;1.40;;;0.50;;
65757;SDS011;52495;52.208;5.158;2022-09-28T11:35:03;0.80;;;0.40;;
65757;SDS011;52495;52.208;5.158;2022-09-28T11:40:51;2.20;;;0.60;;
65757;SDS011;52495;52.208;5.158;2022-09-28T11:43:31;4.22;;;1.05;;
65757;SDS011;52495;52.208;5.158;2022-09-28T11:46:17;2.30;;;0.68;;
65757;SDS011;52495;52.208;5.158;2022-09-28T11:49:04;1.55;;;0.68;;
65757;SDS011;52495;52.208;5.158;2022-09-28T11:51:39;0.80;;;0.47;;
65757;SDS011;52495;52.208;5.158;2022-09-28T11:54:08;1.10;;;0.40;;
65757;SDS011;52495;52.208;5.158;2022-09-28T11:56:41;0.47;;;0.40;;
65757;SDS011;52495;52.208;5.158;2022-09-28T11:59:13;1.45;;;0.50;;
65757;SDS011;52495;52.208;5.158;2022-09-28T12:01:51;1.75;;;0.40;;
65757;SDS011;52495;52.208;5.158;2022-09-28T12:04:40;0.47;;;0.47;;
65757;SDS011;52495;52.208;5.158;2022-09-28T12:07:12;1.15;;;0.57;;
65757;SDS011;52495;52.208;5.158;2022-09-28T12:09:42;1.08;;;0.40;;
65757;SDS011;52495;52.208;5.158;2022-09-28T12:12:19;1.92;;;1.27;;
65757;SDS011;52495;52.208;5.158;2022-09-28T12:14:52;1.85;;;0.90;;
65757;SDS011;52495;52.208;5.158;2022-09-28T12:17:24;0.70;;;0.50;;
65757;SDS011;52495;52.208;5.158;2022-09-28T12:19:57;0.60;;;0.50;;
65757;SDS011;52495;52.208;5.158;2022-09-28T12:22:29;0.82;;;0.60;;
65757;SDS011;52495;52.208;5.158;2022-09-28T12:24:58;3.53;;;0.75;;
65757;SDS011;52495;52.208;5.158;2022-09-28T12:27:29;0.45;;;0.40;;
65757;SDS011;52495;52.208;5.158;2022-09-28T12:30:03;0.80;;;0.50;;
65757;SDS011;52495;52.208;5.158;2022-09-28T12:32:40;2.70;;;1.33;;
65757;SDS011;52495;52.208;5.158;2022-09-28T12:35:11;0.95;;;0.70;;
65757;SDS011;52495;52.208;5.158;2022-09-28T12:37:46;2.75;;;0.63;;
65757;SDS011;52495;52.208;5.158;2022-09-28T12:40:36;2.25;;;0.50;;
65757;SDS011;52495;52.208;5.158;2022-09-28T12:46:23;1.77;;;0.68;;
65757;SDS011;52495;52.208;5.158;2022-09-28T12:49:04;1.55;;;1.23;;
65757;SDS011;52495;52.208;5.158;2022-09-28T12:51:46;1.20;;;1.10;;
65757;SDS011;52495;52.208;5.158;2022-09-28T12:54:19;1.00;;;0.75;;
65757;SDS011;52495;52.208;5.158;2022-09-28T12:57:00;1.23;;;0.73;;
65757;SDS011;52495;52.208;5.158;2022-09-28T12:59:55;1.35;;;0.63;;
65757;SDS011;52495;52.208;5.158;2022-09-28T13:08:21;1.88;;;0.75;;
65757;SDS011;52495;52.208;5.158;2022-09-28T13:10:59;2.40;;;0.70;;
65757;SDS011;52495;52.208;5.158;2022-09-28T13:13:37;0.65;;;0.43;;
65757;SDS011;52495;52.208;5.158;2022-09-28T13:16:14;0.50;;;0.50;;
65757;SDS011;52495;52.208;5.158;2022-09-28T13:18:51;0.88;;;0.57;;
65757;SDS011;52495;52.208;5.158;2022-09-28T13:21:27;1.10;;;0.40;;
65757;SDS011;52495;52.208;5.158;2022-09-28T13:24:05;1.92;;;0.50;;
65757;SDS011;52495;52.208;5.158;2022-09-28T13:26:39;1.20;;;0.50;;
65757;SDS011;52495;52.208;5.158;2022-09-28T13:29:10;1.08;;;0.60;;
65757;SDS011;52495;52.208;5.158;2022-09-28T13:31:41;1.60;;;0.52;;
65757;SDS011;52495;52.208;5.158;2022-09-28T13:34:12;1.23;;;0.60;;
65757;SDS011;52495;52.208;5.158;2022-09-28T13:39:47;0.57;;;0.28;;
65757;SDS011;52495;52.208;5.158;2022-09-28T13:42:21;1.08;;;0.47;;
65757;SDS011;52495;52.208;5.158;2022-09-28T13:45:00;0.95;;;0.57;;
65757;SDS011;52495;52.208;5.158;2022-09-28T13:47:48;1.52;;;0.65;;
65757;SDS011;52495;52.208;5.158;2022-09-28T13:50:26;1.85;;;0.60;;
65757;SDS011;52495;52.208;5.158;2022-09-28T13:53:06;3.15;;;0.73;;
65757;SDS011;52495;52.208;5.158;2022-09-28T13:55:46;0.77;;;0.40;;
65757;SDS011;52495;52.208;5.158;2022-09-28T13:58:19;2.55;;;0.50;;
65757;SDS011;52495;52.208;5.158;2022-09-28T14:00:52;1.55;;;0.60;;
65757;SDS011;52495;52.208;5.158;2022-09-28T14:03:26;2.85;;;0.73;;
65757;SDS011;52495;52.208;5.158;2022-09-28T14:06:08;4.75;;;0.55;;
65757;SDS011;52495;52.208;5.158;2022-09-28T14:11:39;1.80;;;0.70;;
65757;SDS011;52495;52.208;5.158;2022-09-28T14:14:25;2.45;;;0.70;;
65757;SDS011;52495;52.208;5.158;2022-09-28T14:17:43;2.40;;;0.50;;
65757;SDS011;52495;52.208;5.158;2022-09-28T14:20:22;1.23;;;0.50;;
65757;SDS011;52495;52.208;5.158;2022-09-28T14:26:13;1.10;;;0.60;;
65757;SDS011;52495;52.208;5.158;2022-09-28T14:28:56;1.70;;;0.50;;
65757;SDS011;52495;52.208;5.158;2022-09-28T14:31:37;1.52;;;0.50;;
65757;SDS011;52495;52.208;5.158;2022-09-28T14:34:20;1.80;;;0.68;;
65757;SDS011;52495;52.208;5.158;2022-09-28T14:36:49;2.40;;;0.60;;
65757;SDS011;52495;52.208;5.158;2022-09-28T14:39:34;3.33;;;0.65;;
65757;SDS011;52495;52.208;5.158;2022-09-28T14:42:22;4.60;;;1.00;;
65757;SDS011;52495;52.208;5.158;2022-09-28T14:50:47;1.17;;;0.60;;
65757;SDS011;52495;52.208;5.158;2022-09-28T14:53:17;0.68;;;0.60;;
65757;SDS011;52495;52.208;5.158;2022-09-28T14:55:49;1.38;;;0.63;;
65757;SDS011;52495;52.208;5.158;2022-09-28T14:58:22;1.35;;;0.80;;
65757;SDS011;52495;52.208;5.158;2022-09-28T15:00:53;0.80;;;0.40;;
65757;SDS011;52495;52.208;5.158;2022-09-28T15:03:26;5.28;;;0.90;;
65757;SDS011;52495;52.208;5.158;2022-09-28T15:05:55;2.45;;;1.58;;
65757;SDS011;52495;52.208;5.158;2022-09-28T15:08:22;2.35;;;1.25;;
65757;SDS011;52495;52.208;5.158;2022-09-28T15:11:01;3.30;;;1.30;;
65757;SDS011;52495;52.208;5.158;2022-09-28T15:13:29;2.08;;;0.80;;
65757;SDS011;52495;52.208;5.158;2022-09-28T15:15:58;1.75;;;0.95;;
65757;SDS011;52495;52.208;5.158;2022-09-28T15:21:40;1.77;;;0.68;;
65757;SDS011;52495;52.208;5.158;2022-09-28T15:26:56;3.33;;;0.90;;
65757;SDS011;52495;52.208;5.158;2022-09-28T15:29:25;1.35;;;0.75;;
65757;SDS011;52495;52.208;5.158;2022-09-28T15:31:55;3.33;;;0.90;;
65757;SDS011;52495;52.208;5.158;2022-09-28T15:34:26;2.03;;;0.80;;
65757;SDS011;52495;52.208;5.158;2022-09-28T15:37:11;2.80;;;0.70;;
65757;SDS011;52495;52.208;5.158;2022-09-28T15:39:40;4.95;;;1.30;;
65757;SDS011;52495;52.208;5.158;2022-09-28T15:42:08;2.13;;;1.30;;
65757;SDS011;52495;52.208;5.158;2022-09-28T15:44:36;1.90;;;0.90;;
65757;SDS011;52495;52.208;5.158;2022-09-28T15:47:11;1.20;;;0.80;;
65757;SDS011;52495;52.208;5.158;2022-09-28T15:49:42;0.68;;;0.52;;
65757;SDS011;52495;52.208;5.158;2022-09-28T15:52:22;1.30;;;0.57;;
65757;SDS011;52495;52.208;5.158;2022-09-28T15:54:53;3.53;;;1.20;;
65757;SDS011;52495;52.208;5.158;2022-09-28T15:57:28;1.75;;;0.90;;
65757;SDS011;52495;52.208;5.158;2022-09-28T16:00:00;2.30;;;1.05;;
65757;SDS011;52495;52.208;5.158;2022-09-28T16:02:37;5.43;;;2.88;;
65757;SDS011;52495;52.208;5.158;2022-09-28T16:05:20;6.45;;;5.85;;
65757;SDS011;52495;52.208;5.158;2022-09-28T16:08:00;6.45;;;4.03;;
65757;SDS011;52495;52.208;5.158;2022-09-28T16:10:29;4.18;;;2.20;;
65757;SDS011;52495;52.208;5.158;2022-09-28T16:13:12;4.65;;;2.17;;
65757;SDS011;52495;52.208;5.158;2022-09-28T16:15:43;7.22;;;5.13;;
65757;SDS011;52495;52.208;5.158;2022-09-28T16:18:14;9.50;;;6.25;;
65757;SDS011;52495;52.208;5.158;2022-09-28T16:20:45;5.15;;;1.90;;
65757;SDS011;52495;52.208;5.158;2022-09-28T16:23:23;2.88;;;1.75;;
65757;SDS011;52495;52.208;5.158;2022-09-28T16:25:52;3.35;;;1.10;;
65757;SDS011;52495;52.208;5.158;2022-09-28T16:28:28;3.72;;;1.88;;